Архив погоды в Алатыре

Метеограмма Алатырь
Среда, 24 Мая
Время местн. Темп Ветер Видим Явления Облачность нижн/средн/верх Атм. давл. Влжн Точка росы ВНГО R Сост. почвы Tg s
Напр Скр Прв ур.ст ур.м изм
03:00 +9° Ю-З 3 6 20 км - преимущественно облачно 744 761 +0.2 45% -2.2° более 2.5 км - - - -
00:00 +6.4° Ю-З 3 4 20 км - ясно 744 761 0 49% -3.5° более 2.5 км - - - -
Вторник, 23 Мая
Время местн. Темп Ветер Видим Явления Облачность нижн/средн/верх Атм. давл. Влжн Точка росы ВНГО R Сост. почвы Tg s
Напр Скр Прв ур.ст ур.м изм
21:00 +9.3° З,Ю-З 3 3 20 км - ясно 744 760 +0.7 40% -3.6° более 2.5 км - - - -
18:00 +14.1° З,С-З 2 7 более 50 км - переменная облачность 743 759 -0.2 27% -4.7° 1 км 0 - - -
15:00 +14.2° С,С-З 5 7 50 км - облачно с прояснениями 744 760 -0.2 28% -4.1° 1 км - - - -
12:00 +11.7° С,С-З 5 9 50 км - преимущественно облачно 744 760 0 31% -5° 1 км - - - -
09:00 +10.7° С 3 6 более 50 км - облачно с прояснениями 744 760 +1.1 39% -2.7° более 2.5 км - - - -
06:00 +5.8° С 3 4 50 км - облачно 743 759 +0.7 59% -1.5° - - Сухая (без трещин) - -
03:00 +4.7° С-З 4 5 20 км - облачно 742 759 +0.3 56% -3.4° - - - - -
00:00 +5.6° С-З 3 4 20 км - облачно с прояснениями 742 758 +0.2 50% -3.9° более 2.5 км - - - -
Понедельник, 22 Мая
Время местн. Темп Ветер Видим Явления Облачность нижн/средн/верх Атм. давл. Влжн Точка росы ВНГО R Сост. почвы Tg s
Напр Скр Прв ур.ст ур.м изм
21:00 +6.5° С,С-З 2 2 50 км - переменная облачность 741 758 +0.5 52% -2.6° - - - - -
18:00 +10.3° С 6 8 50 км - преимущественно облачно 741 757 +0.5 33% -5.4° - - - - -
15:00 +11.7° С 5 11 более 50 км - облачно с прояснениями 740 756 0 31% -5° 1 км - - - -
12:00 +10.6° С 6 9 50 км - облачно с прояснениями 740 757 +0.4 33% -5° - - - - -
09:00 +7.7° С,С-В 6 12 50 км - облачно с прояснениями 740 756 +0.9 44% -3.8° - - - - -
06:00 +3.8° С,С-В 5 9 более 50 км - переменная облачность 739 756 +0.8 68% -1.5° более 2.5 км 0.3 Влажная (без луж) -
03:00 +3.2° С 5 6 20 км - переменная облачность 738 755 +0.6 81% +0.3° - - - - -
00:00 +7.1° С 5 7 20 км - облачно с прояснениями 738 754 +0.4 82% +4.3° 1 км - - - -
Воскресенье, 21 Мая
Время местн. Темп Ветер Видим Явления Облачность нижн/средн/верх Атм. давл. Влжн Точка росы ВНГО R Сост. почвы Tg s
Напр Скр Прв ур.ст ур.м изм
21:00 +7.6° С 4 6 20 км небо без изменений {дождь} преимущественно облачно 737 754 +0.9 85% +5.3° 1 км - - - -
18:00 +8.4° С 6 12 10 км слабый непрерывный дождь облачно 736 753 +0.8 92% +7.1° 600 м - - - -
15:00 +12.2° С 6 10 10 км слабый непрерывный дождь облачно 736 752 +0.2 89% +10.5° 600 м - - - -
12:00 +16.5° С 5 7 50 км - облачно 736 751 -0.6 61% +8.9° - - - - -
09:00 +17.2° С,С-В 3 5 50 км - облачно с прояснениями 736 752 -1.4 57% +8.6° 1 км - - - -
06:00 +12.8° С,С-В 1 3 более 50 км - облачно с прояснениями 738 753 -1.1 75% +8.4° более 2.5 км 0 Сухая (без трещин) +8° -
03:00 +11.9° Ю 1 1 20 км - переменная облачность 739 755 -1.4 70% +6.7° - - - - -
00:00 +14.5° З,С-З 2 3 20 км - переменная облачность 740 756 -1.4 61% +7° 1 км - - - -